createdAt,value
2018-09-05T00:01:59.397Z,19.13
2018-09-05T00:04:27.759Z,19.23
2018-09-05T00:06:56.087Z,19.52
2018-09-05T00:09:24.359Z,19.35
2018-09-05T00:11:52.644Z,19.28
2018-09-05T00:14:20.959Z,19.22
2018-09-05T00:16:49.253Z,19.03
2018-09-05T00:19:17.604Z,18.88
2018-09-05T00:21:45.940Z,18.97
2018-09-05T00:24:14.281Z,18.72
2018-09-05T00:26:42.670Z,18.82
2018-09-05T00:29:11.095Z,21.16
2018-09-05T00:31:39.486Z,21.48
2018-09-05T00:34:07.851Z,22.10
2018-09-05T00:36:36.202Z,20.21
2018-09-05T00:39:07.007Z,19.26
2018-09-05T00:41:35.353Z,18.91
2018-09-05T00:44:03.838Z,18.89
2018-09-05T00:46:32.197Z,18.68
2018-09-05T00:49:00.984Z,18.64
2018-09-05T00:51:29.366Z,18.87
2018-09-05T00:53:57.679Z,18.70
2018-09-05T00:56:26.054Z,18.69
2018-09-05T00:58:54.487Z,18.75
2018-09-05T01:01:22.877Z,18.57
2018-09-05T01:03:51.306Z,18.45
2018-09-05T01:06:19.610Z,18.44
2018-09-05T01:08:47.984Z,18.23
2018-09-05T01:11:16.398Z,18.22
2018-09-05T01:13:44.839Z,18.32
2018-09-05T01:16:13.274Z,18.03
2018-09-05T01:18:41.762Z,17.95
2018-09-05T01:21:10.194Z,17.82
2018-09-05T01:23:38.691Z,18.15
2018-09-05T01:26:07.068Z,18.18
2018-09-05T01:28:35.448Z,18.20
2018-09-05T01:31:03.758Z,18.15
2018-09-05T01:33:33.470Z,18.19
2018-09-05T01:36:07.082Z,18.12
2018-09-05T01:38:35.502Z,18.19
2018-09-05T01:41:03.877Z,17.88
2018-09-05T01:43:32.274Z,18.09
2018-09-05T01:46:00.786Z,18.17
2018-09-05T01:48:29.204Z,17.90
2018-09-05T01:50:57.542Z,17.97
2018-09-05T01:53:25.893Z,17.74
2018-09-05T01:55:54.214Z,17.89
2018-09-05T01:58:22.608Z,17.94
2018-09-05T02:00:50.950Z,18.09
2018-09-05T02:03:19.287Z,17.96
2018-09-05T02:05:47.617Z,17.54
2018-09-05T02:08:15.919Z,17.85
2018-09-05T02:10:44.275Z,17.72
2018-09-05T02:13:12.702Z,17.56
2018-09-05T02:15:41.077Z,17.59
2018-09-05T02:18:09.627Z,17.61
2018-09-05T02:20:37.969Z,17.74
2018-09-05T02:23:06.341Z,17.80
2018-09-05T02:25:34.635Z,17.62
2018-09-05T02:28:03.019Z,17.52
2018-09-05T02:30:31.387Z,17.49
2018-09-05T02:32:59.680Z,17.59
2018-09-05T02:35:28.073Z,17.57
2018-09-05T02:37:56.438Z,17.60
2018-09-05T02:40:24.976Z,17.42
2018-09-05T02:42:53.369Z,17.33
2018-09-05T02:45:21.706Z,17.56
2018-09-05T02:47:50.087Z,17.46
2018-09-05T02:50:18.383Z,17.34
2018-09-05T02:52:46.723Z,17.44
2018-09-05T02:55:20.387Z,17.36
2018-09-05T02:57:48.713Z,17.51
2018-09-05T03:00:29.134Z,17.44
2018-09-05T03:02:57.539Z,17.01
2018-09-05T03:05:25.938Z,17.40
2018-09-05T03:07:54.389Z,17.36
2018-09-05T03:10:22.823Z,17.04
2018-09-05T03:12:51.251Z,17.23
2018-09-05T03:15:19.737Z,16.81
2018-09-05T03:17:48.129Z,17.03
2018-09-05T03:20:16.577Z,17.26
2018-09-05T03:22:44.879Z,17.17
2018-09-05T03:25:13.219Z,16.96
2018-09-05T03:27:41.660Z,17.06
2018-09-05T03:30:10.108Z,17.04
2018-09-05T03:32:38.569Z,17.12
2018-09-05T03:35:06.981Z,16.93
2018-09-05T03:37:35.480Z,16.86
2018-09-05T03:40:03.829Z,16.89
2018-09-05T03:42:32.210Z,16.70
2018-09-05T03:45:00.618Z,16.68
2018-09-05T03:47:29.149Z,16.65
2018-09-05T03:49:57.581Z,16.79
2018-09-05T03:52:26.049Z,17.03
2018-09-05T03:54:54.374Z,16.82
2018-09-05T03:57:22.751Z,16.93
2018-09-05T03:59:51.107Z,16.98
2018-09-05T04:02:19.492Z,17.05
2018-09-05T04:04:47.908Z,17.01
2018-09-05T04:07:16.304Z,16.82
2018-09-05T04:09:44.727Z,16.95
2018-09-05T04:12:13.159Z,16.48
2018-09-05T04:14:41.525Z,16.49
2018-09-05T04:17:12.827Z,16.78
2018-09-05T04:19:47.986Z,16.83
2018-09-05T04:22:16.387Z,16.76
2018-09-05T04:24:44.689Z,18.11
2018-09-05T04:27:13.073Z,19.28
2018-09-05T04:29:41.378Z,19.70
2018-09-05T04:32:09.646Z,19.62
2018-09-05T04:34:40.845Z,19.54
2018-09-05T04:37:12.477Z,19.63
2018-09-05T04:39:40.784Z,19.80
2018-09-05T04:42:09.232Z,19.51
2018-09-05T04:44:37.504Z,19.65
2018-09-05T04:47:05.806Z,19.79
2018-09-05T04:49:34.104Z,19.84
2018-09-05T04:52:02.514Z,19.95
2018-09-05T04:54:30.919Z,19.90
2018-09-05T04:56:59.183Z,19.93
2018-09-05T04:59:31.048Z,19.94
2018-09-05T05:01:59.338Z,19.95
2018-09-05T05:04:27.815Z,19.92
2018-09-05T05:06:56.056Z,20.04
2018-09-05T05:09:24.338Z,19.41
2018-09-05T05:11:52.654Z,19.93
2018-09-05T05:14:20.951Z,19.54
2018-09-05T05:16:49.240Z,19.66
2018-09-05T05:19:17.616Z,19.48
2018-09-05T05:21:45.895Z,19.41
2018-09-05T05:24:14.198Z,19.91
2018-09-05T05:26:42.515Z,19.79
2018-09-05T05:29:10.806Z,17.67
2018-09-05T05:31:39.282Z,17.44
2018-09-05T05:34:07.546Z,17.18
2018-09-05T05:36:35.823Z,17.19
2018-09-05T05:39:06.188Z,17.03
2018-09-05T05:41:34.429Z,17.26
2018-09-05T05:44:02.686Z,17.04
2018-09-05T05:46:30.979Z,17.22
2018-09-05T05:48:59.242Z,17.33
2018-09-05T05:51:27.499Z,17.55
2018-09-05T05:53:55.748Z,17.49
2018-09-05T05:56:24.080Z,17.64
2018-09-05T05:58:52.339Z,17.66
2018-09-05T06:01:20.601Z,18.00
2018-09-05T06:03:49.024Z,18.14
2018-09-05T06:06:17.407Z,18.28
2018-09-05T06:08:45.618Z,18.26
2018-09-05T06:11:13.904Z,18.48
2018-09-05T06:13:42.194Z,18.96
2018-09-05T06:16:10.507Z,18.71
2018-09-05T06:18:39.452Z,18.64
2018-09-05T06:21:07.816Z,19.32
2018-09-05T06:23:36.019Z,21.39
2018-09-05T06:26:04.359Z,23.16
2018-09-05T06:28:32.763Z,24.97
2018-09-05T06:31:02.178Z,25.30
2018-09-05T06:33:30.443Z,25.62
2018-09-05T06:35:58.767Z,27.16
2018-09-05T06:38:27.060Z,27.92
2018-09-05T06:40:55.388Z,27.23
2018-09-05T06:43:23.622Z,29.18
2018-09-05T06:45:51.875Z,30.41
2018-09-05T06:48:20.133Z,30.55
2018-09-05T06:50:48.420Z,32.18
2018-09-05T06:53:17.002Z,31.86
2018-09-05T06:55:45.258Z,32.73
2018-09-05T06:58:13.548Z,33.99
2018-09-05T07:00:41.778Z,34.35
2018-09-05T07:03:10.070Z,34.96
2018-09-05T07:05:38.335Z,37.24
2018-09-05T07:08:06.699Z,37.77
2018-09-05T07:10:34.956Z,37.31
2018-09-05T07:13:03.235Z,38.39
2018-09-05T07:15:31.518Z,38.64
2018-09-05T07:17:59.780Z,39.52
2018-09-05T07:20:28.100Z,38.45
2018-09-05T07:22:56.370Z,39.68
2018-09-05T07:25:24.623Z,40.80
2018-09-05T07:27:52.897Z,41.00
2018-09-05T07:30:21.209Z,41.10
2018-09-05T07:32:49.454Z,42.29
2018-09-05T07:35:17.906Z,39.89
2018-09-05T07:37:46.178Z,42.65
2018-09-05T07:40:14.564Z,40.71
2018-09-05T07:42:42.834Z,40.90
2018-09-05T07:45:11.097Z,39.02
2018-09-05T07:47:39.391Z,37.94
2018-09-05T07:50:07.981Z,39.06
2018-09-05T07:52:36.294Z,40.36
2018-09-05T07:55:04.569Z,40.96
2018-09-05T07:57:32.892Z,41.91
2018-09-05T08:00:01.184Z,41.84
2018-09-05T08:02:29.456Z,44.16
2018-09-05T08:04:57.748Z,43.33
2018-09-05T08:07:26.084Z,42.37
2018-09-05T08:09:54.355Z,43.76
2018-09-05T08:12:22.615Z,44.21
2018-09-05T08:14:50.894Z,43.07
2018-09-05T08:17:19.265Z,41.41
2018-09-05T08:19:47.575Z,41.49
2018-09-05T08:22:15.822Z,41.09
2018-09-05T08:24:44.104Z,42.81
2018-09-05T08:27:12.443Z,44.08
2018-09-05T08:29:40.829Z,43.27
2018-09-05T08:32:09.240Z,44.54
2018-09-05T08:34:37.519Z,43.50
2018-09-05T08:37:05.917Z,44.51
2018-09-05T08:39:34.066Z,43.89
2018-09-05T08:42:02.480Z,44.58
2018-09-05T08:44:30.895Z,44.10
2018-09-05T08:46:59.367Z,42.10
2018-09-05T08:49:27.658Z,42.00
2018-09-05T08:51:56.078Z,41.84
2018-09-05T08:54:24.504Z,42.64
2018-09-05T08:56:52.851Z,43.25
2018-09-05T08:59:21.192Z,46.28
2018-09-05T09:01:49.563Z,44.02
2018-09-05T09:04:17.910Z,44.87
2018-09-05T09:06:46.276Z,46.44
2018-09-05T09:09:14.626Z,43.75
2018-09-05T09:11:43.010Z,45.30
2018-09-05T09:14:11.383Z,42.98
2018-09-05T09:16:39.806Z,42.21
2018-09-05T09:19:08.195Z,42.15
2018-09-05T09:21:36.571Z,42.02
2018-09-05T09:24:04.994Z,41.36
2018-09-05T09:26:33.383Z,41.92
2018-09-05T09:29:01.852Z,42.64
2018-09-05T09:31:30.231Z,44.13
2018-09-05T09:33:58.618Z,42.71
2018-09-05T09:36:26.979Z,42.45
2018-09-05T09:38:55.594Z,40.29
2018-09-05T09:41:23.955Z,40.93
2018-09-05T09:43:52.347Z,40.89
2018-09-05T09:46:20.719Z,39.22
2018-09-05T09:48:49.118Z,39.62
2018-09-05T09:51:20.343Z,40.23
2018-09-05T09:53:48.699Z,41.02
2018-09-05T09:56:17.122Z,40.68
2018-09-05T09:58:45.902Z,39.94
2018-09-05T10:01:20.050Z,39.47
2018-09-05T10:03:53.675Z,40.43
2018-09-05T10:06:26.287Z,39.96
2018-09-05T10:08:59.878Z,40.62
2018-09-05T10:11:33.455Z,40.50
2018-09-05T10:14:07.187Z,40.28
2018-09-05T10:16:44.805Z,41.03
2018-09-05T10:19:13.318Z,40.55
2018-09-05T10:21:41.564Z,41.82
2018-09-05T10:24:10.457Z,39.00
2018-09-05T10:26:38.792Z,39.28
2018-09-05T10:29:07.048Z,40.06
2018-09-05T10:31:35.371Z,39.45
2018-09-05T10:34:03.591Z,39.94
2018-09-05T10:36:31.871Z,38.19
2018-09-05T10:39:00.123Z,37.68
2018-09-05T10:41:28.395Z,39.18
2018-09-05T10:43:56.651Z,36.95
2018-09-05T10:46:24.945Z,34.93
2018-09-05T10:48:53.310Z,35.04
2018-09-05T10:51:25.900Z,36.01
2018-09-05T10:53:54.285Z,36.79
2018-09-05T10:56:22.678Z,36.45
2018-09-05T10:58:51.159Z,35.93
2018-09-05T11:01:19.722Z,36.62
2018-09-05T11:03:48.307Z,38.60
2018-09-05T11:06:16.737Z,38.91
2018-09-05T11:08:45.127Z,38.51
2018-09-05T11:11:13.558Z,38.40
2018-09-05T11:13:41.962Z,37.65
2018-09-05T11:16:10.454Z,38.62
2018-09-05T11:18:38.992Z,39.89
2018-09-05T11:21:07.463Z,37.95
2018-09-05T11:23:35.755Z,39.48
2018-09-05T11:26:04.139Z,40.17
2018-09-05T11:28:32.638Z,38.63
2018-09-05T11:31:01.041Z,40.61
2018-09-05T11:33:29.402Z,39.81
2018-09-05T11:35:57.882Z,39.14
2018-09-05T11:38:26.489Z,38.96
2018-09-05T11:40:55.031Z,39.64
2018-09-05T11:43:25.425Z,40.55
2018-09-05T11:45:54.223Z,40.24
2018-09-05T11:48:22.640Z,39.23
2018-09-05T11:50:52.972Z,38.29
2018-09-05T11:53:21.716Z,38.55
2018-09-05T11:55:50.415Z,40.01
2018-09-05T11:58:19.317Z,38.38
2018-09-05T12:00:47.954Z,39.74
2018-09-05T12:03:18.185Z,38.33
2018-09-05T12:05:46.555Z,39.28
2018-09-05T12:08:16.249Z,38.77
2018-09-05T12:10:44.809Z,38.17
2018-09-05T12:13:13.108Z,35.46
2018-09-05T12:15:41.494Z,33.89
2018-09-05T12:18:10.302Z,33.81
2018-09-05T12:23:21.943Z,32.47
2018-09-05T12:25:50.241Z,32.61
2018-09-05T12:28:18.526Z,33.07
2018-09-05T12:30:46.853Z,31.84
2018-09-05T12:33:15.148Z,32.11
2018-09-05T12:35:43.425Z,31.89
2018-09-05T12:38:11.727Z,31.92
2018-09-05T12:40:40.379Z,32.30
2018-09-05T12:43:08.854Z,32.34
2018-09-05T12:45:37.156Z,31.86
2018-09-05T12:48:05.469Z,31.98
2018-09-05T12:50:33.718Z,32.25
2018-09-05T12:53:02.003Z,32.89
2018-09-05T12:55:30.285Z,33.63
2018-09-05T12:57:58.529Z,33.12
2018-09-05T13:00:26.838Z,33.35
2018-09-05T13:02:55.104Z,33.27
2018-09-05T13:05:23.410Z,32.91
2018-09-05T13:07:51.759Z,32.37
2018-09-05T13:10:20.030Z,32.71
2018-09-05T13:12:48.299Z,32.68
2018-09-05T13:15:16.575Z,32.25
2018-09-05T13:17:44.825Z,31.78
2018-09-05T13:20:18.746Z,32.02
2018-09-05T13:22:47.120Z,31.88
2018-09-05T13:25:15.327Z,31.56
2018-09-05T13:30:25.844Z,31.40
2018-09-05T13:32:54.334Z,31.52
2018-09-05T13:35:22.837Z,31.53
2018-09-05T13:37:51.287Z,31.00
2018-09-05T13:40:19.809Z,31.50
2018-09-05T13:42:49.211Z,30.73
2018-09-05T13:45:17.657Z,31.22
2018-09-05T13:47:54.306Z,30.84
2018-09-05T13:50:22.742Z,31.76
2018-09-05T13:52:53.027Z,31.41
2018-09-05T13:55:21.323Z,30.70
2018-09-05T13:57:49.974Z,30.89
2018-09-05T14:00:18.347Z,31.07
2018-09-05T14:02:47.586Z,30.87
2018-09-05T14:05:16.621Z,31.01
2018-09-05T14:07:45.084Z,31.34
2018-09-05T14:10:14.338Z,32.17
2018-09-05T14:12:42.731Z,33.63
2018-09-05T14:15:11.078Z,33.83
2018-09-05T14:17:39.500Z,33.60
2018-09-05T14:20:08.845Z,34.69
2018-09-05T14:22:37.196Z,34.27
2018-09-05T14:25:06.606Z,34.40
2018-09-05T14:27:35.001Z,33.97
2018-09-05T14:30:03.231Z,34.27
2018-09-05T14:32:31.621Z,33.50
2018-09-05T14:35:01.054Z,34.79
2018-09-05T14:37:29.334Z,34.50
2018-09-05T14:39:57.619Z,33.88
2018-09-05T14:42:26.079Z,34.30
2018-09-05T14:44:56.492Z,32.69
2018-09-05T14:47:24.912Z,34.44
2018-09-05T14:49:53.393Z,33.59
2018-09-05T14:52:21.842Z,34.13
2018-09-05T14:54:50.286Z,33.58
2018-09-05T14:57:18.674Z,33.88
2018-09-05T14:59:49.148Z,34.67
2018-09-05T15:02:17.543Z,33.74
2018-09-05T15:04:46.927Z,33.61
2018-09-05T15:07:15.240Z,33.94
2018-09-05T15:09:43.654Z,30.07
2018-09-05T15:12:12.226Z,30.26
2018-09-05T15:14:42.688Z,29.81
2018-09-05T15:17:11.147Z,29.50
2018-09-05T15:19:39.413Z,29.25
2018-09-05T15:22:07.708Z,29.38
2018-09-05T15:24:36.224Z,30.19
2018-09-05T15:27:04.723Z,29.51
2018-09-05T15:29:33.023Z,29.69
2018-09-05T15:32:01.646Z,29.57
2018-09-05T15:34:29.968Z,29.47
2018-09-05T15:36:58.341Z,29.72
2018-09-05T15:39:28.824Z,29.39
2018-09-05T15:41:57.061Z,29.14
2018-09-05T15:44:25.405Z,29.40
2018-09-05T15:46:53.807Z,29.43
2018-09-05T15:49:23.112Z,28.92
2018-09-05T15:51:55.971Z,29.44
2018-09-05T15:54:25.309Z,29.73
2018-09-05T15:56:53.903Z,29.23
2018-09-05T15:59:22.807Z,29.49
2018-09-05T16:01:51.495Z,29.47
2018-09-05T16:04:19.906Z,29.09
2018-09-05T16:06:48.263Z,29.42
2018-09-05T16:09:16.686Z,32.28
2018-09-05T16:11:45.523Z,33.05
2018-09-05T16:14:18.705Z,33.36
2018-09-05T16:16:47.105Z,33.33
2018-09-05T16:19:16.527Z,33.09
2018-09-05T16:21:45.020Z,33.05
2018-09-05T16:24:14.363Z,32.85
2018-09-05T16:26:42.768Z,33.40
2018-09-05T16:29:12.227Z,31.60
2018-09-05T16:31:40.635Z,31.27
2018-09-05T16:34:09.455Z,31.88
2018-09-05T16:36:37.770Z,31.46
2018-09-05T16:39:08.829Z,32.30
2018-09-05T16:41:37.599Z,32.37
2018-09-05T16:44:05.935Z,31.95
2018-09-05T16:46:34.288Z,31.49
2018-09-05T16:49:02.741Z,32.31
2018-09-05T16:51:31.192Z,33.10
2018-09-05T16:54:05.896Z,32.83
2018-09-05T16:56:34.790Z,33.15
2018-09-05T16:59:04.202Z,32.37
2018-09-05T17:01:32.563Z,32.73
2018-09-05T17:04:05.872Z,32.83
2018-09-05T17:06:34.287Z,32.87
2018-09-05T17:09:02.716Z,32.67
2018-09-05T17:11:31.139Z,32.10
2018-09-05T17:13:59.532Z,32.33
2018-09-05T17:16:27.938Z,32.00
2018-09-05T17:18:56.445Z,32.17
2018-09-05T17:21:25.037Z,31.85
2018-09-05T17:23:53.451Z,31.89
2018-09-05T17:26:21.866Z,32.26
2018-09-05T17:28:53.207Z,32.08
2018-09-05T17:31:21.646Z,31.87
2018-09-05T17:33:50.263Z,31.91
2018-09-05T17:36:18.728Z,32.13
2018-09-05T17:38:51.087Z,31.47
2018-09-05T17:41:19.460Z,31.33
2018-09-05T17:44:01.091Z,31.31
2018-09-05T17:46:29.479Z,30.84
2018-09-05T17:48:57.918Z,30.53
2018-09-05T17:51:26.314Z,30.16
2018-09-05T17:53:56.718Z,30.17
2018-09-05T17:56:25.368Z,29.86
2018-09-05T17:58:53.774Z,30.31
2018-09-05T18:01:23.505Z,29.74
2018-09-05T18:03:51.876Z,29.70
2018-09-05T18:08:59.444Z,29.28
2018-09-05T18:11:27.842Z,29.07
2018-09-05T18:13:56.408Z,29.02
2018-09-05T18:16:24.788Z,28.28
2018-09-05T18:18:53.204Z,28.04
2018-09-05T18:21:21.689Z,27.93
2018-09-05T18:23:50.120Z,28.12
2018-09-05T18:26:18.663Z,28.00
2018-09-05T18:28:49.101Z,27.80
2018-09-05T18:31:18.382Z,28.16
2018-09-05T18:33:47.692Z,28.21
2018-09-05T18:36:16.098Z,27.94
2018-09-05T18:38:45.542Z,27.11
2018-09-05T18:41:14.003Z,28.00
2018-09-05T18:43:42.368Z,27.68
2018-09-05T18:46:10.827Z,27.38
2018-09-05T18:48:39.274Z,27.47
2018-09-05T18:51:07.690Z,27.28
2018-09-05T18:53:36.073Z,26.72
2018-09-05T18:56:04.492Z,27.03
2018-09-05T18:58:32.879Z,26.90
2018-09-05T19:01:01.316Z,26.86
2018-09-05T19:03:29.685Z,27.19
2018-09-05T19:05:58.124Z,27.04
2018-09-05T19:08:27.619Z,26.78
2018-09-05T19:10:56.091Z,26.75
2018-09-05T19:13:24.578Z,26.41
2018-09-05T19:15:53.052Z,26.25
2018-09-05T19:18:21.531Z,26.08
2018-09-05T19:20:49.950Z,26.17
2018-09-05T19:23:18.757Z,25.88
2018-09-05T19:25:47.251Z,25.65
2018-09-05T19:28:15.702Z,26.15
2018-09-05T19:30:44.122Z,25.25
2018-09-05T19:33:12.545Z,25.81
2018-09-05T19:35:41.027Z,25.51
2018-09-05T19:38:09.772Z,25.87
2018-09-05T19:40:46.451Z,25.71
2018-09-05T19:43:14.910Z,25.60
2018-09-05T19:45:43.326Z,25.21
2018-09-05T19:48:11.822Z,25.29
2018-09-05T19:50:40.248Z,25.69
2018-09-05T19:53:08.684Z,25.10
2018-09-05T19:55:37.114Z,25.75
2018-09-05T19:58:05.520Z,25.66
2018-09-05T20:00:33.970Z,25.38
2018-09-05T20:03:02.335Z,24.84
2018-09-05T20:05:30.759Z,25.19
2018-09-05T20:07:59.240Z,24.76
2018-09-05T20:10:27.634Z,24.82
2018-09-05T20:12:56.227Z,25.08
2018-09-05T20:15:24.701Z,25.07
2018-09-05T20:17:53.028Z,25.01
2018-09-05T20:20:21.544Z,24.81
2018-09-05T20:22:50.136Z,24.27
2018-09-05T20:25:18.565Z,24.48
2018-09-05T20:27:47.537Z,24.53
2018-09-05T20:30:15.946Z,25.01
2018-09-05T20:32:44.371Z,24.63
2018-09-05T20:35:12.782Z,24.93
2018-09-05T20:37:41.370Z,24.77
2018-09-05T20:40:09.772Z,25.03
2018-09-05T20:42:38.146Z,24.87
2018-09-05T20:45:10.439Z,24.76
2018-09-05T20:47:38.840Z,24.41
2018-09-05T20:50:07.271Z,24.43
2018-09-05T20:52:35.717Z,24.55
2018-09-05T20:55:04.175Z,24.65
2018-09-05T20:57:32.605Z,24.41
2018-09-05T21:00:00.968Z,23.80
2018-09-05T21:02:29.354Z,23.63
2018-09-05T21:04:57.746Z,23.80
2018-09-05T21:07:26.075Z,24.19
2018-09-05T21:09:54.444Z,24.15
2018-09-05T21:12:22.820Z,24.16
2018-09-05T21:14:51.231Z,23.90
2018-09-05T21:17:19.643Z,23.44
2018-09-05T21:19:48.125Z,23.94
2018-09-05T21:22:17.410Z,23.92
2018-09-05T21:24:45.853Z,23.87
2018-09-05T21:27:14.385Z,23.56
2018-09-05T21:29:42.984Z,23.61
2018-09-05T21:32:11.282Z,23.59
2018-09-05T21:34:39.688Z,23.89
2018-09-05T21:37:08.311Z,24.09
2018-09-05T21:39:36.671Z,24.00
2018-09-05T21:42:05.058Z,23.95
2018-09-05T21:44:33.468Z,24.21
2018-09-05T21:47:02.092Z,24.03
2018-09-05T21:49:30.404Z,24.13
2018-09-05T21:51:58.799Z,23.66
2018-09-05T21:54:28.166Z,23.27
2018-09-05T21:56:56.588Z,23.25
2018-09-05T21:59:25.233Z,24.19
2018-09-05T22:01:53.715Z,23.95
2018-09-05T22:04:22.098Z,23.84
2018-09-05T22:06:50.588Z,23.93
2018-09-05T22:09:19.043Z,23.99
2018-09-05T22:11:47.416Z,24.02
2018-09-05T22:14:15.764Z,23.55
2018-09-05T22:16:44.091Z,23.63
2018-09-05T22:19:12.624Z,23.86
2018-09-05T22:21:41.238Z,23.88
2018-09-05T22:24:09.845Z,23.95
2018-09-05T22:26:38.302Z,23.59
2018-09-05T22:29:06.801Z,23.37
2018-09-05T22:31:35.169Z,23.63
2018-09-05T22:34:03.620Z,23.64
2018-09-05T22:36:32.043Z,23.96
2018-09-05T22:39:00.508Z,23.81
2018-09-05T22:41:29.077Z,23.01
2018-09-05T22:44:08.900Z,23.74
2018-09-05T22:46:48.746Z,24.06
2018-09-05T22:49:59.354Z,24.00
2018-09-05T22:52:40.917Z,24.12
2018-09-05T22:55:25.709Z,24.10
2018-09-05T22:58:14.773Z,23.96
2018-09-05T23:01:35.458Z,23.52
2018-09-05T23:04:15.056Z,23.77
2018-09-05T23:06:57.376Z,24.02
2018-09-05T23:09:36.952Z,23.84
2018-09-05T23:12:30.133Z,23.41
2018-09-05T23:15:09.563Z,23.37
2018-09-05T23:17:49.289Z,23.71
2018-09-05T23:20:37.013Z,23.27
2018-09-05T23:23:16.663Z,23.30
2018-09-05T23:25:45.606Z,22.74
2018-09-05T23:28:14.459Z,23.72
2018-09-05T23:30:42.977Z,23.31
2018-09-05T23:35:53.702Z,23.57
2018-09-05T23:38:22.265Z,23.64
2018-09-05T23:40:51.043Z,23.62
2018-09-05T23:43:19.472Z,23.17
2018-09-05T23:45:47.783Z,23.33
2018-09-05T23:48:16.188Z,23.17
2018-09-05T23:50:44.464Z,23.42
2018-09-05T23:53:12.841Z,23.64
2018-09-05T23:55:41.231Z,23.60
2018-09-05T23:58:09.660Z,24.10
